createdAt,value
2022-09-01T00:00:18.641Z,15.60
2022-09-01T00:02:46.747Z,15.70
2022-09-01T00:05:14.623Z,15.60
2022-09-01T00:07:42.446Z,17.40
2022-09-01T00:10:11.232Z,22.17
2022-09-01T00:12:40.609Z,14.53
2022-09-01T00:15:11.464Z,18.40
2022-09-01T00:17:40.981Z,21.73
2022-09-01T00:20:09.995Z,17.20
2022-09-01T00:22:37.924Z,17.03
2022-09-01T00:25:07.916Z,17.90
2022-09-01T00:27:36.647Z,17.97
2022-09-01T00:30:06.207Z,20.63
2022-09-01T00:32:34.112Z,22.40
2022-09-01T00:35:03.315Z,18.97
2022-09-01T00:37:31.154Z,17.00
2022-09-01T00:39:59.012Z,15.77
2022-09-01T00:42:27.005Z,16.00
2022-09-01T00:44:54.852Z,17.40
2022-09-01T00:47:22.701Z,17.53
2022-09-01T00:49:53.053Z,19.00
2022-09-01T00:52:28.967Z,19.53
2022-09-01T00:55:01.565Z,17.60
2022-09-01T00:57:29.472Z,17.17
2022-09-01T01:00:00.245Z,18.60
2022-09-01T01:02:28.457Z,19.60
2022-09-01T01:05:00.627Z,16.93
2022-09-01T01:07:30.241Z,18.67
2022-09-01T01:09:58.372Z,17.30
2022-09-01T01:12:29.993Z,18.50
2022-09-01T01:14:57.892Z,20.73
2022-09-01T01:17:26.576Z,21.10
2022-09-01T01:20:14.006Z,23.80
2022-09-01T01:23:03.718Z,22.77
2022-09-01T01:25:35.594Z,22.13
2022-09-01T01:28:10.155Z,24.03
2022-09-01T01:30:39.594Z,22.70
2022-09-01T01:33:07.883Z,23.33
2022-09-01T01:35:36.570Z,21.67
2022-09-01T01:38:07.537Z,22.40
2022-09-01T01:40:38.083Z,28.53
2022-09-01T01:43:06.601Z,24.93
2022-09-01T01:45:34.609Z,22.53
2022-09-01T01:48:08.449Z,26.93
2022-09-01T01:50:37.803Z,24.63
2022-09-01T01:53:11.464Z,24.73
2022-09-01T01:55:43.577Z,25.73
2022-09-01T01:58:12.444Z,25.60
2022-09-01T02:00:42.816Z,25.77
2022-09-01T02:03:12.668Z,26.80
2022-09-01T02:05:41.270Z,23.87
2022-09-01T02:08:11.133Z,25.87
2022-09-01T02:10:44.176Z,24.43
2022-09-01T02:13:16.340Z,23.17
2022-09-01T02:15:46.763Z,25.47
2022-09-01T02:18:18.086Z,21.53
2022-09-01T02:20:47.592Z,22.13
2022-09-01T02:23:18.036Z,22.37
2022-09-01T02:26:14.191Z,21.60
2022-09-01T02:28:39.918Z,22.00
2022-09-01T02:31:08.898Z,22.27
2022-09-01T02:33:37.902Z,21.50
2022-09-01T02:36:09.366Z,20.50
2022-09-01T02:38:38.836Z,21.10
2022-09-01T02:41:08.377Z,25.40
2022-09-01T02:43:36.314Z,22.00
2022-09-01T02:46:06.219Z,22.53
2022-09-01T02:48:37.259Z,26.07
2022-09-01T02:51:08.100Z,22.87
2022-09-01T02:53:41.649Z,24.57
2022-09-01T02:56:14.422Z,23.57
2022-09-01T02:58:46.765Z,23.23
2022-09-01T03:01:24.691Z,24.57
2022-09-01T03:03:55.518Z,20.67
2022-09-01T03:06:24.298Z,20.87
2022-09-01T03:08:54.104Z,24.60
2022-09-01T03:11:24.679Z,27.30
2022-09-01T03:13:53.433Z,19.20
2022-09-01T03:16:23.327Z,21.63
2022-09-01T03:18:51.664Z,19.07
2022-09-01T03:21:19.829Z,22.17
2022-09-01T03:23:48.989Z,21.17
2022-09-01T03:26:19.285Z,20.37
2022-09-01T03:28:49.116Z,20.60
2022-09-01T03:31:18.133Z,22.23
2022-09-01T03:33:46.002Z,21.90
2022-09-01T03:36:19.133Z,20.00
2022-09-01T03:38:49.087Z,20.90
2022-09-01T03:41:18.456Z,20.10
2022-09-01T03:43:48.697Z,22.37
2022-09-01T03:46:21.261Z,21.50
2022-09-01T03:48:50.667Z,22.33
2022-09-01T03:51:20.604Z,18.77
2022-09-01T03:53:48.452Z,23.00
2022-09-01T03:56:16.553Z,25.03
2022-09-01T03:58:47.025Z,20.60
2022-09-01T04:01:17.050Z,20.67
2022-09-01T04:03:48.811Z,23.90
2022-09-01T04:06:18.884Z,22.13
2022-09-01T04:08:47.051Z,32.30
2022-09-01T04:11:18.462Z,20.47
2022-09-01T04:13:47.169Z,20.70
2022-09-01T04:16:40.058Z,21.90
2022-09-01T04:19:16.052Z,25.40
2022-09-01T04:21:44.827Z,23.73
2022-09-01T04:24:14.716Z,23.10
2022-09-01T04:26:45.953Z,22.33
2022-09-01T04:29:14.000Z,24.97
2022-09-01T04:31:43.208Z,25.13
2022-09-01T04:34:13.740Z,20.20
2022-09-01T04:36:43.991Z,22.20
2022-09-01T04:39:12.315Z,24.20
2022-09-01T04:41:45.925Z,22.23
2022-09-01T04:44:15.678Z,23.47
2022-09-01T04:46:46.346Z,22.43
2022-09-01T04:49:19.398Z,21.83
2022-09-01T04:51:53.135Z,22.40
2022-09-01T04:54:22.868Z,25.20
2022-09-01T04:56:54.846Z,23.87
2022-09-01T04:59:27.026Z,24.70
2022-09-01T05:01:57.313Z,21.67
2022-09-01T05:04:28.056Z,22.53
2022-09-01T05:07:01.119Z,21.27
2022-09-01T05:09:31.140Z,26.20
2022-09-01T05:12:01.577Z,22.07
2022-09-01T05:14:29.577Z,25.77
2022-09-01T05:17:00.188Z,22.30
2022-09-01T05:19:30.725Z,22.27
2022-09-01T05:21:59.808Z,22.37
2022-09-01T05:24:30.326Z,30.93
2022-09-01T05:27:00.379Z,21.47
2022-09-01T05:29:29.596Z,22.80
2022-09-01T05:32:00.337Z,22.77
2022-09-01T05:34:29.661Z,29.10
2022-09-01T05:36:59.758Z,23.60
2022-09-01T05:39:28.529Z,25.67
2022-09-01T05:41:57.159Z,23.80
2022-09-01T05:44:25.082Z,25.67
2022-09-01T05:46:53.376Z,23.13
2022-09-01T05:49:22.614Z,29.90
2022-09-01T05:51:54.018Z,27.67
2022-09-01T05:54:25.285Z,23.97
2022-09-01T05:56:53.492Z,24.63
2022-09-01T05:59:24.877Z,26.30
2022-09-01T06:01:54.066Z,31.70
2022-09-01T06:04:25.878Z,27.03
2022-09-01T06:07:06.138Z,25.23
2022-09-01T06:09:39.159Z,23.63
2022-09-01T06:12:07.225Z,25.13
2022-09-01T06:14:36.117Z,23.80
2022-09-01T06:17:04.045Z,21.27
2022-09-01T06:19:37.144Z,18.97
2022-09-01T06:22:05.571Z,20.17
2022-09-01T06:24:33.588Z,17.60
2022-09-01T06:27:02.325Z,19.03
2022-09-01T06:29:31.219Z,18.17
2022-09-01T06:32:02.271Z,17.37
2022-09-01T06:34:31.894Z,15.90
2022-09-01T06:37:01.057Z,19.37
2022-09-01T06:39:28.917Z,20.20
2022-09-01T06:41:58.119Z,20.90
2022-09-01T06:44:26.104Z,17.03
2022-09-01T06:46:54.906Z,18.00
2022-09-01T06:49:32.411Z,14.23
2022-09-01T06:52:03.558Z,13.93
2022-09-01T06:54:34.174Z,16.30
2022-09-01T06:58:03.524Z,16.27
2022-09-01T06:59:53.905Z,15.43
2022-09-01T07:02:22.050Z,17.83
2022-09-01T07:04:54.504Z,14.83
2022-09-01T07:10:23.066Z,16.47
2022-09-01T07:13:07.348Z,15.83
2022-09-01T07:18:30.748Z,20.57
2022-09-01T07:21:07.565Z,17.43
2022-09-01T07:24:08.039Z,16.60
2022-09-01T07:29:25.649Z,25.23
2022-09-01T07:34:47.650Z,17.50
2022-09-01T07:38:47.334Z,16.07
2022-09-01T07:42:31.580Z,19.20
2022-09-01T07:45:31.131Z,20.50
2022-09-01T07:48:06.433Z,18.27
2022-09-01T07:50:41.673Z,17.30
2022-09-01T07:53:26.799Z,18.10
2022-09-01T07:55:57.199Z,23.57
2022-09-01T07:58:26.956Z,14.87
2022-09-01T08:00:55.163Z,14.70
2022-09-01T08:03:25.677Z,11.90
2022-09-01T08:05:57.702Z,13.10
2022-09-01T08:08:29.584Z,11.30
2022-09-01T08:11:06.079Z,10.80
2022-09-01T08:13:37.312Z,9.87
2022-09-01T08:16:16.981Z,10.60
2022-09-01T08:18:48.786Z,14.40
2022-09-01T08:21:19.620Z,12.47
2022-09-01T08:23:47.842Z,11.10
2022-09-01T08:26:19.056Z,11.00
2022-09-01T08:28:54.462Z,11.67
2022-09-01T08:31:24.391Z,12.80
2022-09-01T08:33:52.699Z,11.33
2022-09-01T08:36:24.024Z,12.53
2022-09-01T08:38:54.360Z,11.03
2022-09-01T08:41:35.422Z,13.87
2022-09-01T08:44:11.934Z,11.27
2022-09-01T08:46:42.404Z,13.33
2022-09-01T08:49:25.432Z,8.63
2022-09-01T08:52:00.976Z,9.70
2022-09-01T08:54:38.026Z,10.30
2022-09-01T08:57:11.880Z,11.03
2022-09-01T08:59:39.717Z,9.43
2022-09-01T09:02:24.333Z,10.57
2022-09-01T09:05:01.617Z,9.30
2022-09-01T09:07:42.306Z,9.73
2022-09-01T09:10:16.730Z,12.77
2022-09-01T09:12:57.649Z,11.40
2022-09-01T09:15:34.930Z,12.00
2022-09-01T09:18:34.062Z,10.90
2022-09-01T09:21:07.772Z,12.83
2022-09-01T09:23:40.384Z,10.63
2022-09-01T09:26:08.427Z,9.83
2022-09-01T09:28:40.070Z,12.27
2022-09-01T09:31:28.522Z,14.93
2022-09-01T09:33:57.542Z,17.10
2022-09-01T09:36:31.752Z,10.63
2022-09-01T09:39:12.410Z,12.40
2022-09-01T09:41:42.084Z,10.07
2022-09-01T09:44:26.304Z,10.40
2022-09-01T09:46:54.132Z,8.10
2022-09-01T09:49:34.462Z,8.10
2022-09-01T09:52:16.448Z,7.87
2022-09-01T09:55:02.912Z,7.53
2022-09-01T09:57:32.255Z,7.23
2022-09-01T10:00:06.218Z,7.90
2022-09-01T10:02:36.804Z,5.43
2022-09-01T10:05:30.198Z,7.30
2022-09-01T10:07:59.342Z,7.13
2022-09-01T10:10:31.277Z,6.17
2022-09-01T10:13:02.072Z,5.40
2022-09-01T10:15:34.409Z,8.80
2022-09-01T10:18:32.650Z,6.27
2022-09-01T10:21:00.481Z,6.17
2022-09-01T10:23:31.082Z,4.80
2022-09-01T10:26:06.068Z,5.43
2022-09-01T10:28:37.176Z,5.10
2022-09-01T10:31:09.226Z,6.07
2022-09-01T10:33:37.281Z,5.70
2022-09-01T10:36:08.331Z,7.80
2022-09-01T10:38:36.191Z,7.47
2022-09-01T10:41:15.013Z,5.70
2022-09-01T10:43:45.234Z,5.43
2022-09-01T10:46:58.820Z,4.97
2022-09-01T10:50:01.725Z,6.07
2022-09-01T10:53:08.213Z,6.90
2022-09-01T10:55:45.135Z,4.63
2022-09-01T11:05:17.624Z,4.00
2022-09-01T11:08:09.142Z,5.73
2022-09-01T11:10:52.088Z,3.20
2022-09-01T11:13:45.195Z,3.57
2022-09-01T11:16:47.021Z,3.80
2022-09-01T11:19:33.315Z,3.73
2022-09-01T11:22:13.076Z,4.83
2022-09-01T11:25:00.123Z,5.93
2022-09-01T11:28:18.016Z,4.60
2022-09-01T11:30:52.928Z,4.40
2022-09-01T11:33:33.581Z,4.83
2022-09-01T11:36:05.895Z,3.40
2022-09-01T11:38:47.001Z,5.07
2022-09-01T11:41:27.272Z,6.83
2022-09-01T11:43:59.107Z,3.60
2022-09-01T11:46:29.744Z,4.57
2022-09-01T11:49:00.229Z,4.37
2022-09-01T11:51:30.001Z,4.60
2022-09-01T11:54:01.594Z,4.73
2022-09-01T11:56:30.221Z,3.23
2022-09-01T11:58:58.092Z,7.00
2022-09-01T12:01:33.606Z,4.60
2022-09-01T12:04:22.169Z,3.93
2022-09-01T12:06:57.939Z,6.33
2022-09-01T12:09:37.213Z,3.30
2022-09-01T12:12:07.080Z,5.80
2022-09-01T12:15:02.043Z,5.10
2022-09-01T12:17:26.080Z,5.80
2022-09-01T12:19:54.302Z,4.70
2022-09-01T12:22:24.409Z,4.30
2022-09-01T12:24:54.710Z,4.50
2022-09-01T12:27:23.785Z,4.73
2022-09-01T12:29:52.273Z,5.57
2022-09-01T12:32:20.655Z,3.90
2022-09-01T12:35:00.851Z,6.50
2022-09-01T12:37:30.146Z,4.37
2022-09-01T12:39:59.855Z,3.67
2022-09-01T12:42:41.379Z,3.97
2022-09-01T12:45:13.023Z,4.07
2022-09-01T12:47:50.784Z,3.73
2022-09-01T12:50:45.092Z,4.67
2022-09-01T12:53:24.302Z,3.80
2022-09-01T12:55:59.532Z,4.00
2022-09-01T12:58:30.308Z,4.63
2022-09-01T13:01:01.083Z,4.43
2022-09-01T13:03:30.395Z,3.93
2022-09-01T13:06:00.048Z,4.27
2022-09-01T13:08:32.958Z,4.07
2022-09-01T13:11:05.196Z,4.60
2022-09-01T13:13:35.168Z,6.97
2022-09-01T13:16:08.376Z,6.93
2022-09-01T13:19:10.638Z,6.97
2022-09-01T13:21:24.428Z,3.93
2022-09-01T13:23:53.689Z,4.87
2022-09-01T13:26:21.665Z,4.23
2022-09-01T13:28:50.764Z,4.00
2022-09-01T13:31:35.483Z,3.23
2022-09-01T13:34:22.670Z,6.33
2022-09-01T13:36:52.620Z,4.70
2022-09-01T13:39:22.976Z,3.43
2022-09-01T13:41:51.215Z,4.47
2022-09-01T13:44:19.646Z,4.50
2022-09-01T13:50:04.549Z,3.90
2022-09-01T13:52:23.725Z,4.30
2022-09-01T13:54:52.860Z,5.23
2022-09-01T13:57:20.640Z,3.37
2022-09-01T13:59:48.469Z,3.10
2022-09-01T14:02:16.264Z,2.90
2022-09-01T14:04:44.460Z,3.40
2022-09-01T14:07:12.353Z,3.63
2022-09-01T14:09:40.382Z,3.90
2022-09-01T14:12:09.633Z,4.00
2022-09-01T14:17:25.444Z,4.10
2022-09-01T14:19:53.466Z,4.20
2022-09-01T14:22:21.351Z,3.07
2022-09-01T14:24:49.259Z,5.63
2022-09-01T14:27:20.391Z,5.50
2022-09-01T14:29:50.413Z,3.30
2022-09-01T14:32:26.762Z,3.33
2022-09-01T14:34:54.717Z,3.40
2022-09-01T14:37:23.429Z,5.83
2022-09-01T14:39:51.575Z,3.77
2022-09-01T14:42:21.241Z,4.90
2022-09-01T14:44:49.637Z,4.30
2022-09-01T14:47:19.411Z,4.17
2022-09-01T14:49:47.732Z,3.33
2022-09-01T14:52:17.785Z,4.43
2022-09-01T14:54:45.881Z,3.10
2022-09-01T14:57:37.782Z,6.40
2022-09-01T15:00:05.748Z,4.07
2022-09-01T15:02:33.732Z,3.93
2022-09-01T15:05:01.614Z,7.80
2022-09-01T15:07:29.512Z,3.50
2022-09-01T15:09:58.754Z,3.83
2022-09-01T15:12:30.758Z,4.20
2022-09-01T15:14:58.787Z,2.97
2022-09-01T15:17:28.522Z,2.50
2022-09-01T15:20:16.881Z,3.40
2022-09-01T15:22:44.699Z,4.17
2022-09-01T15:25:12.549Z,7.40
2022-09-01T15:27:41.466Z,2.87
2022-09-01T15:30:14.435Z,3.10
2022-09-01T15:32:44.206Z,6.57
2022-09-01T15:35:12.622Z,3.13
2022-09-01T15:37:40.660Z,3.30
2022-09-01T15:40:09.947Z,3.80
2022-09-01T15:42:38.634Z,3.00
2022-09-01T15:45:10.068Z,3.30
2022-09-01T15:47:38.305Z,3.70
2022-09-01T15:50:12.776Z,2.80
2022-09-01T15:52:51.075Z,3.30
2022-09-01T15:55:20.402Z,4.40
2022-09-01T15:57:48.400Z,3.80
2022-09-01T16:00:17.814Z,3.50
2022-09-01T16:02:45.764Z,4.30
2022-09-01T16:05:15.581Z,4.67
2022-09-01T16:07:43.827Z,5.80
2022-09-01T16:10:12.874Z,2.60
2022-09-01T16:12:43.855Z,3.13
2022-09-01T16:15:14.337Z,6.50
2022-09-01T16:17:58.282Z,4.90
2022-09-01T16:20:36.599Z,2.67
2022-09-01T16:23:13.200Z,3.40
2022-09-01T16:25:41.515Z,3.10
2022-09-01T16:28:18.171Z,2.90
2022-09-01T16:30:47.402Z,2.70
2022-09-01T16:33:19.870Z,3.83
2022-09-01T16:36:04.103Z,3.37
2022-09-01T16:38:41.076Z,6.63
2022-09-01T16:41:16.421Z,6.03
2022-09-01T16:43:50.861Z,2.93
2022-09-01T16:46:25.006Z,3.63
2022-09-01T16:48:58.867Z,3.40
2022-09-01T16:51:32.580Z,3.40
2022-09-01T16:54:14.718Z,5.13
2022-09-01T16:56:54.219Z,3.47
2022-09-01T16:59:31.727Z,2.90
2022-09-01T17:02:09.508Z,4.33
2022-09-01T17:04:46.706Z,3.00
2022-09-01T17:07:21.151Z,3.23
2022-09-01T17:10:00.423Z,4.47
2022-09-01T17:12:37.325Z,5.90
2022-09-01T17:15:11.435Z,3.33
2022-09-01T17:17:45.360Z,3.40
2022-09-01T17:20:14.596Z,5.50
2022-09-01T17:22:51.373Z,3.13
2022-09-01T17:25:27.846Z,2.80
2022-09-01T17:27:59.699Z,4.10
2022-09-01T17:30:30.661Z,3.00
2022-09-01T17:33:17.327Z,4.90
2022-09-01T17:35:59.420Z,3.50
2022-09-01T17:38:37.573Z,3.57
2022-09-01T17:41:19.034Z,4.13
2022-09-01T17:43:57.149Z,3.83
2022-09-01T17:46:35.225Z,3.40
2022-09-01T17:49:11.333Z,3.97
2022-09-01T17:51:45.137Z,3.33
2022-09-01T17:54:24.692Z,2.70
2022-09-01T17:57:02.826Z,5.13
2022-09-01T17:59:38.793Z,3.13
2022-09-01T18:02:29.394Z,4.83
2022-09-01T18:05:08.353Z,4.50
2022-09-01T18:08:00.618Z,3.40
2022-09-01T18:10:35.561Z,3.73
2022-09-01T18:13:05.864Z,3.83
2022-09-01T18:15:43.945Z,4.90
2022-09-01T18:18:29.578Z,3.03
2022-09-01T18:21:02.571Z,15.93
2022-09-01T18:23:32.913Z,3.60
2022-09-01T18:26:10.789Z,2.80
2022-09-01T18:28:38.732Z,11.30
2022-09-01T18:31:18.514Z,4.67
2022-09-01T18:33:56.991Z,9.60
2022-09-01T18:36:38.217Z,4.30
2022-09-01T18:39:12.637Z,3.00
2022-09-01T18:41:58.650Z,3.57
2022-09-01T18:44:40.888Z,4.93
2022-09-01T18:47:12.090Z,5.20
2022-09-01T18:49:49.329Z,3.90
2022-09-01T18:52:36.413Z,2.87
2022-09-01T18:55:09.525Z,3.27
2022-09-01T18:57:41.701Z,4.00
2022-09-01T19:00:19.116Z,7.13
2022-09-01T19:03:04.570Z,4.83
2022-09-01T19:05:53.921Z,5.97
2022-09-01T19:08:37.465Z,3.33
2022-09-01T19:11:12.156Z,6.10
2022-09-01T19:13:53.954Z,3.60
2022-09-01T19:16:32.821Z,3.90
2022-09-01T19:19:10.069Z,3.30
2022-09-01T19:21:39.226Z,3.90
2022-09-01T19:24:13.080Z,5.33
2022-09-01T19:26:44.641Z,4.47
2022-09-01T19:29:18.703Z,5.17
2022-09-01T19:31:49.205Z,4.50
2022-09-01T19:34:25.534Z,3.60
2022-09-01T19:36:56.892Z,3.30
2022-09-01T19:39:26.532Z,3.00
2022-09-01T19:42:02.792Z,3.03
2022-09-01T19:44:38.701Z,6.13
2022-09-01T19:47:11.760Z,3.87
2022-09-01T19:49:46.153Z,3.23
2022-09-01T19:52:24.582Z,3.70
2022-09-01T19:54:57.476Z,2.70
2022-09-01T19:57:33.478Z,3.20
2022-09-01T20:00:10.566Z,3.83
2022-09-01T20:02:44.126Z,3.20
2022-09-01T20:05:25.498Z,3.63
2022-09-01T20:07:56.522Z,3.50
2022-09-01T20:10:39.664Z,3.43
2022-09-01T20:13:26.604Z,7.20
2022-09-01T20:16:02.828Z,3.67
2022-09-01T20:18:33.813Z,4.30
2022-09-01T20:21:06.929Z,4.77
2022-09-01T20:23:43.319Z,3.87
2022-09-01T20:26:16.860Z,4.63
2022-09-01T20:28:48.593Z,5.10
2022-09-01T20:31:25.012Z,3.70
2022-09-01T20:33:58.290Z,3.47
2022-09-01T20:36:32.045Z,3.20
2022-09-01T20:39:23.621Z,3.50
2022-09-01T20:41:58.237Z,3.40
2022-09-01T20:44:36.161Z,5.27
2022-09-01T20:47:06.937Z,4.40
2022-09-01T20:49:38.255Z,3.20
2022-09-01T20:52:13.412Z,9.10
2022-09-01T20:54:49.531Z,5.73
2022-09-01T20:57:29.808Z,3.80
2022-09-01T20:59:59.910Z,3.37
2022-09-01T21:02:45.437Z,3.50
2022-09-01T21:05:26.372Z,4.17
2022-09-01T21:08:01.792Z,4.93
2022-09-01T21:10:37.635Z,3.33
2022-09-01T21:13:15.661Z,4.27
2022-09-01T21:15:49.470Z,3.73
2022-09-01T21:18:33.132Z,4.33
2022-09-01T21:21:08.088Z,4.83
2022-09-01T21:23:35.882Z,4.77
2022-09-01T21:26:04.213Z,4.83
2022-09-01T21:28:32.483Z,7.20
2022-09-01T21:31:01.976Z,3.30
2022-09-01T21:33:33.184Z,4.03
2022-09-01T21:36:01.794Z,7.50
2022-09-01T21:38:30.328Z,3.10
2022-09-01T21:40:59.724Z,4.90
2022-09-01T21:43:32.400Z,3.10
2022-09-01T21:46:00.887Z,3.47
2022-09-01T21:48:29.276Z,5.43
2022-09-01T21:50:58.536Z,3.67
2022-09-01T21:53:26.344Z,5.70
2022-09-01T21:55:54.165Z,3.17
2022-09-01T21:58:21.961Z,4.37
2022-09-01T22:00:50.167Z,6.60
2022-09-01T22:03:18.071Z,4.87
2022-09-01T22:05:46.167Z,3.60
2022-09-01T22:08:17.237Z,3.67
2022-09-01T22:10:47.065Z,4.57
2022-09-01T22:13:15.792Z,3.80
2022-09-01T22:15:44.817Z,3.60
2022-09-01T22:18:13.206Z,4.67
2022-09-01T22:20:41.477Z,4.50
2022-09-01T22:23:10.689Z,4.47
2022-09-01T22:25:42.695Z,3.37
2022-09-01T22:28:10.738Z,4.87
2022-09-01T22:30:43.881Z,4.07
2022-09-01T22:33:12.601Z,4.17
2022-09-01T22:35:41.990Z,3.40
2022-09-01T22:38:10.293Z,7.50
2022-09-01T22:40:46.486Z,4.80
2022-09-01T22:43:17.632Z,4.00
2022-09-01T22:45:46.451Z,3.00
2022-09-01T22:48:14.564Z,3.20
2022-09-01T22:50:44.230Z,3.30
2022-09-01T22:53:14.325Z,5.00
2022-09-01T22:55:45.893Z,6.07
2022-09-01T23:00:50.984Z,3.10
2022-09-01T23:03:19.830Z,11.57
2022-09-01T23:05:49.281Z,6.80
2022-09-01T23:08:18.094Z,3.53
2022-09-01T23:10:48.270Z,3.63
2022-09-01T23:13:16.089Z,5.13
2022-09-01T23:15:43.973Z,3.13
2022-09-01T23:18:11.872Z,4.10
2022-09-01T23:20:39.753Z,5.10
2022-09-01T23:23:07.973Z,5.70
2022-09-01T23:25:35.796Z,4.60
2022-09-01T23:28:05.073Z,4.10
2022-09-01T23:30:33.052Z,5.10
2022-09-01T23:33:00.924Z,3.60
2022-09-01T23:35:28.907Z,3.77
2022-09-01T23:37:57.736Z,8.10
2022-09-01T23:40:25.866Z,3.53
2022-09-01T23:42:53.732Z,3.73
2022-09-01T23:45:22.966Z,3.33
2022-09-01T23:47:50.863Z,3.80
2022-09-01T23:50:18.734Z,6.97
2022-09-01T23:52:46.689Z,3.80
2022-09-01T23:55:14.750Z,3.50
2022-09-01T23:57:42.560Z,4.50
